首页
METAR-TAF:

METAR-TAF

机场 :

乃磨機場

纳奈莫, 不列颠哥伦比亚, 加拿大

纬度: 49-03N, 经度: 123-52W, 海拔: 28米

当前天气观测

该预报发布于23分钟前的00:00 UTC
风速7节,风向北转东北
温度 18°C
湿度 34%
气压 1020 hPa
能見度: 48.3公里
天空无云

METAR: CYCD 190000Z 02007KT 30SM SKC 18/02 A3013 RMK SLP206 DENSITY ALT 300FT

时间: 17:23 (00:23 UTC)

预报

该预报发布于45分钟前的23:38 UTC
预报有效从19日的 00点(UTC)到 19日的 04点(UTC)
风速6节,风向
能見度: 10公里
天空无云
成为
从 19日的 02点(UTC)到 19日的 04点(UTC)
风速3节,风向多变

TAF: CYCD 182338Z 1900/1904 01006KT P6SM SKC BECMG 1902/1904 VRB03KT RMK NXT FCST WILL BE ISSUED AT 191445Z

超过4000个机场的气象观测和天气预报(METAR&TAF报告)。

可查询的气象台以黄色和红色小点在地图上表示。

将鼠标移到小点上方,可查看气象台名称。

然后点击查看天气观测和预报。

如需切换地图:点击带黑十字的绿色按钮放大地图;点击带横线的绿色按钮缩小地图;或者点击绿色箭头查看邻近地区的地图。


METAR-TAF: